sensor_id;sensor_type;location;lat;lon;timestamp;P1;durP1;ratioP1;P2;durP2;ratioP2
22881;SDS011;11608;50.894;5.296;2023-09-08T00:01:39;28.15;;;25.95;;
22881;SDS011;11608;50.894;5.296;2023-09-08T00:04:05;27.88;;;25.65;;
22881;SDS011;11608;50.894;5.296;2023-09-08T00:06:32;27.80;;;25.67;;
22881;SDS011;11608;50.894;5.296;2023-09-08T00:08:58;27.50;;;25.40;;
22881;SDS011;11608;50.894;5.296;2023-09-08T00:11:24;26.90;;;24.95;;
22881;SDS011;11608;50.894;5.296;2023-09-08T00:13:50;27.05;;;25.02;;
22881;SDS011;11608;50.894;5.296;2023-09-08T00:16:19;27.83;;;25.63;;
22881;SDS011;11608;50.894;5.296;2023-09-08T00:18:45;27.70;;;25.52;;
22881;SDS011;11608;50.894;5.296;2023-09-08T00:21:11;29.60;;;26.90;;
22881;SDS011;11608;50.894;5.296;2023-09-08T00:23:37;29.23;;;27.02;;
22881;SDS011;11608;50.894;5.296;2023-09-08T00:26:03;27.42;;;25.35;;
22881;SDS011;11608;50.894;5.296;2023-09-08T00:28:29;28.17;;;25.80;;
22881;SDS011;11608;50.894;5.296;2023-09-08T00:30:55;27.48;;;25.58;;
22881;SDS011;11608;50.894;5.296;2023-09-08T00:33:22;29.10;;;26.80;;
22881;SDS011;11608;50.894;5.296;2023-09-08T00:35:49;28.67;;;26.25;;
22881;SDS011;11608;50.894;5.296;2023-09-08T00:38:15;29.98;;;27.50;;
22881;SDS011;11608;50.894;5.296;2023-09-08T00:40:41;28.20;;;26.00;;
22881;SDS011;11608;50.894;5.296;2023-09-08T00:43:07;27.70;;;25.60;;
22881;SDS011;11608;50.894;5.296;2023-09-08T00:45:36;27.90;;;25.55;;
22881;SDS011;11608;50.894;5.296;2023-09-08T00:48:04;28.30;;;25.98;;
22881;SDS011;11608;50.894;5.296;2023-09-08T00:50:30;28.67;;;26.48;;
22881;SDS011;11608;50.894;5.296;2023-09-08T00:52:56;29.25;;;26.85;;
22881;SDS011;11608;50.894;5.296;2023-09-08T00:55:22;28.42;;;26.25;;
22881;SDS011;11608;50.894;5.296;2023-09-08T00:57:48;28.35;;;26.13;;
22881;SDS011;11608;50.894;5.296;2023-09-08T01:00:15;28.63;;;26.60;;
22881;SDS011;11608;50.894;5.296;2023-09-08T01:02:41;28.48;;;26.38;;
22881;SDS011;11608;50.894;5.296;2023-09-08T01:05:08;29.60;;;27.40;;
22881;SDS011;11608;50.894;5.296;2023-09-08T01:07:34;29.63;;;27.10;;
22881;SDS011;11608;50.894;5.296;2023-09-08T01:10:00;27.80;;;25.65;;
22881;SDS011;11608;50.894;5.296;2023-09-08T01:12:29;28.25;;;26.15;;
22881;SDS011;11608;50.894;5.296;2023-09-08T01:14:55;27.55;;;25.35;;
22881;SDS011;11608;50.894;5.296;2023-09-08T01:17:21;27.50;;;25.50;;
22881;SDS011;11608;50.894;5.296;2023-09-08T01:19:47;28.38;;;26.20;;
22881;SDS011;11608;50.894;5.296;2023-09-08T01:27:10;28.75;;;26.58;;
22881;SDS011;11608;50.894;5.296;2023-09-08T01:29:37;27.75;;;25.55;;
22881;SDS011;11608;50.894;5.296;2023-09-08T01:32:04;28.70;;;26.40;;
22881;SDS011;11608;50.894;5.296;2023-09-08T01:34:30;28.05;;;25.98;;
22881;SDS011;11608;50.894;5.296;2023-09-08T01:36:56;28.27;;;25.90;;
22881;SDS011;11608;50.894;5.296;2023-09-08T01:39:25;27.58;;;25.50;;
22881;SDS011;11608;50.894;5.296;2023-09-08T01:41:51;28.73;;;26.52;;
22881;SDS011;11608;50.894;5.296;2023-09-08T01:44:17;28.10;;;26.00;;
22881;SDS011;11608;50.894;5.296;2023-09-08T01:46:43;28.67;;;26.35;;
22881;SDS011;11608;50.894;5.296;2023-09-08T01:49:09;28.27;;;26.20;;
22881;SDS011;11608;50.894;5.296;2023-09-08T01:51:35;29.67;;;27.30;;
22881;SDS011;11608;50.894;5.296;2023-09-08T01:54:01;28.73;;;26.42;;
22881;SDS011;11608;50.894;5.296;2023-09-08T01:56:29;28.52;;;26.13;;
22881;SDS011;11608;50.894;5.296;2023-09-08T01:58:55;27.70;;;25.70;;
22881;SDS011;11608;50.894;5.296;2023-09-08T02:01:21;28.00;;;25.80;;
22881;SDS011;11608;50.894;5.296;2023-09-08T02:03:47;27.80;;;25.55;;
22881;SDS011;11608;50.894;5.296;2023-09-08T02:06:13;26.75;;;24.70;;
22881;SDS011;11608;50.894;5.296;2023-09-08T02:08:39;28.13;;;26.13;;
22881;SDS011;11608;50.894;5.296;2023-09-08T02:11:05;28.50;;;26.40;;
22881;SDS011;11608;50.894;5.296;2023-09-08T02:13:31;28.42;;;26.17;;
22881;SDS011;11608;50.894;5.296;2023-09-08T02:15:57;28.50;;;26.05;;
22881;SDS011;11608;50.894;5.296;2023-09-08T02:18:25;27.95;;;25.67;;
22881;SDS011;11608;50.894;5.296;2023-09-08T02:20:51;27.60;;;25.48;;
22881;SDS011;11608;50.894;5.296;2023-09-08T02:23:17;27.52;;;25.42;;
22881;SDS011;11608;50.894;5.296;2023-09-08T02:25:43;27.05;;;24.95;;
22881;SDS011;11608;50.894;5.296;2023-09-08T02:28:09;27.38;;;25.20;;
22881;SDS011;11608;50.894;5.296;2023-09-08T02:30:37;27.85;;;25.85;;
22881;SDS011;11608;50.894;5.296;2023-09-08T02:33:03;27.33;;;25.40;;
22881;SDS011;11608;50.894;5.296;2023-09-08T02:35:30;27.67;;;25.58;;
22881;SDS011;11608;50.894;5.296;2023-09-08T02:37:56;28.20;;;25.92;;
22881;SDS011;11608;50.894;5.296;2023-09-08T02:40:22;28.73;;;26.52;;
22881;SDS011;11608;50.894;5.296;2023-09-08T02:42:48;29.30;;;26.90;;
22881;SDS011;11608;50.894;5.296;2023-09-08T02:45:14;28.60;;;26.50;;
22881;SDS011;11608;50.894;5.296;2023-09-08T02:47:40;27.70;;;25.70;;
22881;SDS011;11608;50.894;5.296;2023-09-08T02:50:06;27.70;;;25.65;;
22881;SDS011;11608;50.894;5.296;2023-09-08T02:52:32;27.10;;;25.10;;
22881;SDS011;11608;50.894;5.296;2023-09-08T02:54:58;27.95;;;25.60;;
22881;SDS011;11608;50.894;5.296;2023-09-08T02:57:24;28.48;;;26.08;;
22881;SDS011;11608;50.894;5.296;2023-09-08T02:59:50;28.88;;;26.58;;
22881;SDS011;11608;50.894;5.296;2023-09-08T03:02:17;28.65;;;26.50;;
22881;SDS011;11608;50.894;5.296;2023-09-08T03:04:43;27.70;;;25.30;;
22881;SDS011;11608;50.894;5.296;2023-09-08T03:07:09;27.75;;;25.65;;
22881;SDS011;11608;50.894;5.296;2023-09-08T03:09:35;28.23;;;26.10;;
22881;SDS011;11608;50.894;5.296;2023-09-08T03:12:01;29.67;;;27.30;;
22881;SDS011;11608;50.894;5.296;2023-09-08T03:14:27;28.55;;;26.15;;
22881;SDS011;11608;50.894;5.296;2023-09-08T03:16:53;27.88;;;25.70;;
22881;SDS011;11608;50.894;5.296;2023-09-08T03:19:19;29.13;;;26.73;;
22881;SDS011;11608;50.894;5.296;2023-09-08T03:21:45;28.60;;;26.40;;
22881;SDS011;11608;50.894;5.296;2023-09-08T03:24:11;28.35;;;26.25;;
22881;SDS011;11608;50.894;5.296;2023-09-08T03:26:37;29.33;;;27.13;;
22881;SDS011;11608;50.894;5.296;2023-09-08T03:29:05;29.60;;;27.00;;
22881;SDS011;11608;50.894;5.296;2023-09-08T03:31:31;28.88;;;26.42;;
22881;SDS011;11608;50.894;5.296;2023-09-08T03:33:57;28.42;;;25.95;;
22881;SDS011;11608;50.894;5.296;2023-09-08T03:36:23;27.90;;;25.67;;
22881;SDS011;11608;50.894;5.296;2023-09-08T03:38:49;28.70;;;26.50;;
22881;SDS011;11608;50.894;5.296;2023-09-08T03:41:18;28.00;;;25.83;;
22881;SDS011;11608;50.894;5.296;2023-09-08T03:43:44;28.70;;;26.30;;
22881;SDS011;11608;50.894;5.296;2023-09-08T03:46:10;29.30;;;26.63;;
22881;SDS011;11608;50.894;5.296;2023-09-08T03:48:39;29.00;;;26.90;;
22881;SDS011;11608;50.894;5.296;2023-09-08T03:51:05;28.88;;;26.50;;
22881;SDS011;11608;50.894;5.296;2023-09-08T03:53:31;29.25;;;26.95;;
22881;SDS011;11608;50.894;5.296;2023-09-08T03:55:57;28.38;;;26.02;;
22881;SDS011;11608;50.894;5.296;2023-09-08T03:58:23;28.55;;;26.10;;
22881;SDS011;11608;50.894;5.296;2023-09-08T04:00:50;29.00;;;26.58;;
22881;SDS011;11608;50.894;5.296;2023-09-08T04:03:16;28.63;;;26.42;;
22881;SDS011;11608;50.894;5.296;2023-09-08T04:05:42;30.25;;;27.73;;
22881;SDS011;11608;50.894;5.296;2023-09-08T04:08:08;31.05;;;28.13;;
22881;SDS011;11608;50.894;5.296;2023-09-08T04:10:34;30.60;;;28.23;;
22881;SDS011;11608;50.894;5.296;2023-09-08T04:13:00;27.73;;;25.73;;
22881;SDS011;11608;50.894;5.296;2023-09-08T04:15:26;29.30;;;26.73;;
22881;SDS011;11608;50.894;5.296;2023-09-08T04:17:52;30.02;;;27.83;;
22881;SDS011;11608;50.894;5.296;2023-09-08T04:20:18;31.13;;;27.80;;
22881;SDS011;11608;50.894;5.296;2023-09-08T04:22:44;29.20;;;26.92;;
22881;SDS011;11608;50.894;5.296;2023-09-08T04:25:11;29.63;;;27.08;;
22881;SDS011;11608;50.894;5.296;2023-09-08T04:27:37;27.13;;;24.92;;
22881;SDS011;11608;50.894;5.296;2023-09-08T04:30:05;25.70;;;23.90;;
22881;SDS011;11608;50.894;5.296;2023-09-08T04:32:31;26.00;;;24.20;;
22881;SDS011;11608;50.894;5.296;2023-09-08T04:34:57;28.77;;;26.75;;
22881;SDS011;11608;50.894;5.296;2023-09-08T04:37:23;28.42;;;26.23;;
22881;SDS011;11608;50.894;5.296;2023-09-08T04:39:49;29.25;;;26.90;;
22881;SDS011;11608;50.894;5.296;2023-09-08T04:42:15;29.77;;;27.27;;
22881;SDS011;11608;50.894;5.296;2023-09-08T04:44:42;27.90;;;25.80;;
22881;SDS011;11608;50.894;5.296;2023-09-08T04:47:08;30.42;;;28.05;;
22881;SDS011;11608;50.894;5.296;2023-09-08T04:49:34;29.13;;;26.65;;
22881;SDS011;11608;50.894;5.296;2023-09-08T04:52:00;29.77;;;27.42;;
22881;SDS011;11608;50.894;5.296;2023-09-08T04:54:26;31.02;;;28.35;;
22881;SDS011;11608;50.894;5.296;2023-09-08T04:56:53;30.70;;;28.05;;
22881;SDS011;11608;50.894;5.296;2023-09-08T04:59:19;30.60;;;28.00;;
22881;SDS011;11608;50.894;5.296;2023-09-08T05:01:45;29.20;;;26.70;;
22881;SDS011;11608;50.894;5.296;2023-09-08T05:04:11;29.45;;;26.95;;
22881;SDS011;11608;50.894;5.296;2023-09-08T05:06:37;29.95;;;27.50;;
22881;SDS011;11608;50.894;5.296;2023-09-08T05:09:03;31.27;;;28.52;;
22881;SDS011;11608;50.894;5.296;2023-09-08T05:11:29;29.05;;;26.65;;
22881;SDS011;11608;50.894;5.296;2023-09-08T05:13:56;30.58;;;28.00;;
22881;SDS011;11608;50.894;5.296;2023-09-08T05:16:22;30.23;;;27.20;;
22881;SDS011;11608;50.894;5.296;2023-09-08T05:19:02;29.73;;;27.27;;
22881;SDS011;11608;50.894;5.296;2023-09-08T05:21:28;29.92;;;27.38;;
22881;SDS011;11608;50.894;5.296;2023-09-08T05:23:54;29.92;;;27.20;;
22881;SDS011;11608;50.894;5.296;2023-09-08T05:26:21;30.55;;;27.95;;
22881;SDS011;11608;50.894;5.296;2023-09-08T05:28:47;25.58;;;23.58;;
22881;SDS011;11608;50.894;5.296;2023-09-08T05:31:13;24.05;;;22.15;;
22881;SDS011;11608;50.894;5.296;2023-09-08T05:33:39;24.48;;;22.27;;
22881;SDS011;11608;50.894;5.296;2023-09-08T05:36:05;25.92;;;23.73;;
22881;SDS011;11608;50.894;5.296;2023-09-08T05:38:31;28.92;;;26.27;;
22881;SDS011;11608;50.894;5.296;2023-09-08T05:40:57;29.10;;;26.45;;
22881;SDS011;11608;50.894;5.296;2023-09-08T05:43:24;29.48;;;26.70;;
22881;SDS011;11608;50.894;5.296;2023-09-08T05:45:50;29.73;;;26.98;;
22881;SDS011;11608;50.894;5.296;2023-09-08T05:48:16;29.52;;;26.85;;
22881;SDS011;11608;50.894;5.296;2023-09-08T05:50:43;29.50;;;26.88;;
22881;SDS011;11608;50.894;5.296;2023-09-08T05:53:09;29.40;;;26.77;;
22881;SDS011;11608;50.894;5.296;2023-09-08T05:55:35;30.33;;;27.52;;
22881;SDS011;11608;50.894;5.296;2023-09-08T05:58:01;28.85;;;26.33;;
22881;SDS011;11608;50.894;5.296;2023-09-08T06:00:27;29.13;;;26.73;;
22881;SDS011;11608;50.894;5.296;2023-09-08T06:02:53;29.23;;;26.83;;
22881;SDS011;11608;50.894;5.296;2023-09-08T06:05:19;26.35;;;24.17;;
22881;SDS011;11608;50.894;5.296;2023-09-08T06:07:45;24.48;;;22.55;;
22881;SDS011;11608;50.894;5.296;2023-09-08T06:10:13;28.90;;;26.50;;
22881;SDS011;11608;50.894;5.296;2023-09-08T06:12:40;28.70;;;26.30;;
22881;SDS011;11608;50.894;5.296;2023-09-08T06:15:06;30.15;;;27.33;;
22881;SDS011;11608;50.894;5.296;2023-09-08T06:17:32;29.88;;;27.05;;
22881;SDS011;11608;50.894;5.296;2023-09-08T06:19:59;29.98;;;27.38;;
22881;SDS011;11608;50.894;5.296;2023-09-08T06:22:25;30.85;;;28.17;;
22881;SDS011;11608;50.894;5.296;2023-09-08T06:24:51;30.48;;;27.95;;
22881;SDS011;11608;50.894;5.296;2023-09-08T06:27:17;29.10;;;26.60;;
22881;SDS011;11608;50.894;5.296;2023-09-08T06:29:43;30.95;;;28.15;;
22881;SDS011;11608;50.894;5.296;2023-09-08T06:32:10;31.35;;;28.25;;
22881;SDS011;11608;50.894;5.296;2023-09-08T06:34:36;29.85;;;27.13;;
22881;SDS011;11608;50.894;5.296;2023-09-08T06:37:02;30.50;;;27.58;;
22881;SDS011;11608;50.894;5.296;2023-09-08T06:39:31;30.30;;;27.75;;
22881;SDS011;11608;50.894;5.296;2023-09-08T06:41:57;28.17;;;25.48;;
22881;SDS011;11608;50.894;5.296;2023-09-08T06:44:23;28.63;;;26.17;;
22881;SDS011;11608;50.894;5.296;2023-09-08T06:46:49;29.90;;;27.40;;
22881;SDS011;11608;50.894;5.296;2023-09-08T06:49:16;30.30;;;27.70;;
22881;SDS011;11608;50.894;5.296;2023-09-08T06:51:42;29.63;;;27.23;;
22881;SDS011;11608;50.894;5.296;2023-09-08T06:54:08;30.17;;;27.63;;
22881;SDS011;11608;50.894;5.296;2023-09-08T06:56:35;29.60;;;27.20;;
22881;SDS011;11608;50.894;5.296;2023-09-08T06:59:02;30.35;;;27.77;;
22881;SDS011;11608;50.894;5.296;2023-09-08T07:01:28;29.55;;;26.95;;
22881;SDS011;11608;50.894;5.296;2023-09-08T07:03:54;29.40;;;26.95;;
22881;SDS011;11608;50.894;5.296;2023-09-08T07:06:20;29.15;;;26.65;;
22881;SDS011;11608;50.894;5.296;2023-09-08T07:08:47;31.35;;;26.80;;
22881;SDS011;11608;50.894;5.296;2023-09-08T07:11:15;29.88;;;27.27;;
22881;SDS011;11608;50.894;5.296;2023-09-08T07:13:41;29.60;;;26.92;;
22881;SDS011;11608;50.894;5.296;2023-09-08T07:16:07;29.13;;;26.50;;
22881;SDS011;11608;50.894;5.296;2023-09-08T07:18:33;32.50;;;26.98;;
22881;SDS011;11608;50.894;5.296;2023-09-08T07:21:01;28.90;;;26.20;;
22881;SDS011;11608;50.894;5.296;2023-09-08T07:23:27;29.13;;;26.63;;
22881;SDS011;11608;50.894;5.296;2023-09-08T07:25:53;31.00;;;27.88;;
22881;SDS011;11608;50.894;5.296;2023-09-08T07:28:22;28.95;;;26.48;;
22881;SDS011;11608;50.894;5.296;2023-09-08T07:30:48;27.75;;;25.45;;
22881;SDS011;11608;50.894;5.296;2023-09-08T07:33:14;28.38;;;25.88;;
22881;SDS011;11608;50.894;5.296;2023-09-08T07:35:43;28.85;;;26.15;;
22881;SDS011;11608;50.894;5.296;2023-09-08T07:38:11;29.70;;;27.08;;
22881;SDS011;11608;50.894;5.296;2023-09-08T07:40:37;30.08;;;27.48;;
22881;SDS011;11608;50.894;5.296;2023-09-08T07:43:10;29.88;;;27.15;;
22881;SDS011;11608;50.894;5.296;2023-09-08T07:45:39;29.98;;;27.38;;
22881;SDS011;11608;50.894;5.296;2023-09-08T07:48:06;28.77;;;26.20;;
22881;SDS011;11608;50.894;5.296;2023-09-08T07:50:32;29.58;;;26.75;;
22881;SDS011;11608;50.894;5.296;2023-09-08T07:52:58;28.75;;;26.10;;
22881;SDS011;11608;50.894;5.296;2023-09-08T07:55:24;28.77;;;26.23;;
22881;SDS011;11608;50.894;5.296;2023-09-08T07:57:54;27.15;;;24.77;;
22881;SDS011;11608;50.894;5.296;2023-09-08T08:00:20;28.48;;;25.83;;
22881;SDS011;11608;50.894;5.296;2023-09-08T08:02:47;28.05;;;25.48;;
22881;SDS011;11608;50.894;5.296;2023-09-08T08:05:14;27.75;;;25.48;;
22881;SDS011;11608;50.894;5.296;2023-09-08T08:07:40;29.40;;;26.75;;
22881;SDS011;11608;50.894;5.296;2023-09-08T08:10:07;29.08;;;26.65;;
22881;SDS011;11608;50.894;5.296;2023-09-08T08:12:33;30.52;;;28.10;;
22881;SDS011;11608;50.894;5.296;2023-09-08T08:14:59;28.02;;;25.73;;
22881;SDS011;11608;50.894;5.296;2023-09-08T08:17:25;27.33;;;25.23;;
22881;SDS011;11608;50.894;5.296;2023-09-08T08:19:53;27.10;;;24.65;;
22881;SDS011;11608;50.894;5.296;2023-09-08T08:22:19;27.27;;;24.60;;
22881;SDS011;11608;50.894;5.296;2023-09-08T08:24:45;27.95;;;25.75;;
22881;SDS011;11608;50.894;5.296;2023-09-08T08:27:11;27.55;;;25.17;;
22881;SDS011;11608;50.894;5.296;2023-09-08T08:29:38;29.38;;;26.83;;
22881;SDS011;11608;50.894;5.296;2023-09-08T08:32:05;29.88;;;27.33;;
22881;SDS011;11608;50.894;5.296;2023-09-08T08:34:31;27.02;;;24.63;;
22881;SDS011;11608;50.894;5.296;2023-09-08T08:36:57;28.73;;;26.00;;
22881;SDS011;11608;50.894;5.296;2023-09-08T08:39:23;28.40;;;25.85;;
22881;SDS011;11608;50.894;5.296;2023-09-08T08:41:49;27.67;;;25.33;;
22881;SDS011;11608;50.894;5.296;2023-09-08T08:44:17;27.92;;;25.52;;
22881;SDS011;11608;50.894;5.296;2023-09-08T08:46:46;28.63;;;26.25;;
22881;SDS011;11608;50.894;5.296;2023-09-08T08:49:13;27.35;;;24.98;;
22881;SDS011;11608;50.894;5.296;2023-09-08T08:51:40;27.65;;;25.20;;
22881;SDS011;11608;50.894;5.296;2023-09-08T08:54:08;27.60;;;25.40;;
22881;SDS011;11608;50.894;5.296;2023-09-08T08:56:35;27.38;;;25.02;;
22881;SDS011;11608;50.894;5.296;2023-09-08T08:59:01;27.63;;;25.30;;
22881;SDS011;11608;50.894;5.296;2023-09-08T09:01:28;27.83;;;25.40;;
22881;SDS011;11608;50.894;5.296;2023-09-08T09:03:57;27.58;;;25.02;;
22881;SDS011;11608;50.894;5.296;2023-09-08T09:06:23;27.83;;;25.63;;
22881;SDS011;11608;50.894;5.296;2023-09-08T09:08:50;30.70;;;28.10;;
22881;SDS011;11608;50.894;5.296;2023-09-08T09:11:16;29.08;;;26.70;;
22881;SDS011;11608;50.894;5.296;2023-09-08T09:13:42;29.10;;;26.70;;
22881;SDS011;11608;50.894;5.296;2023-09-08T09:16:10;27.42;;;24.88;;
22881;SDS011;11608;50.894;5.296;2023-09-08T09:18:52;26.02;;;23.83;;
22881;SDS011;11608;50.894;5.296;2023-09-08T09:21:19;27.45;;;25.15;;
22881;SDS011;11608;50.894;5.296;2023-09-08T09:23:45;26.67;;;24.48;;
22881;SDS011;11608;50.894;5.296;2023-09-08T09:26:11;27.88;;;25.58;;
22881;SDS011;11608;50.894;5.296;2023-09-08T09:28:48;27.65;;;25.33;;
22881;SDS011;11608;50.894;5.296;2023-09-08T09:31:14;28.02;;;25.58;;
22881;SDS011;11608;50.894;5.296;2023-09-08T09:33:40;27.30;;;25.02;;
22881;SDS011;11608;50.894;5.296;2023-09-08T09:36:09;27.55;;;25.20;;
22881;SDS011;11608;50.894;5.296;2023-09-08T09:38:35;26.48;;;24.25;;
22881;SDS011;11608;50.894;5.296;2023-09-08T09:41:01;27.20;;;25.02;;
22881;SDS011;11608;50.894;5.296;2023-09-08T09:43:28;26.50;;;24.15;;
22881;SDS011;11608;50.894;5.296;2023-09-08T09:45:54;28.30;;;25.80;;
22881;SDS011;11608;50.894;5.296;2023-09-08T09:48:21;29.80;;;27.13;;
22881;SDS011;11608;50.894;5.296;2023-09-08T09:50:48;28.30;;;25.70;;
22881;SDS011;11608;50.894;5.296;2023-09-08T09:53:15;28.48;;;25.88;;
22881;SDS011;11608;50.894;5.296;2023-09-08T09:55:44;27.20;;;24.92;;
22881;SDS011;11608;50.894;5.296;2023-09-08T09:58:10;28.95;;;26.40;;
22881;SDS011;11608;50.894;5.296;2023-09-08T10:00:37;26.92;;;24.88;;
22881;SDS011;11608;50.894;5.296;2023-09-08T10:03:05;27.70;;;25.58;;
22881;SDS011;11608;50.894;5.296;2023-09-08T10:05:31;27.85;;;25.65;;
22881;SDS011;11608;50.894;5.296;2023-09-08T10:07:57;28.80;;;26.45;;
22881;SDS011;11608;50.894;5.296;2023-09-08T10:10:24;28.10;;;25.53;;
22881;SDS011;11608;50.894;5.296;2023-09-08T10:12:52;28.70;;;26.15;;
22881;SDS011;11608;50.894;5.296;2023-09-08T10:15:22;26.92;;;24.83;;
22881;SDS011;11608;50.894;5.296;2023-09-08T10:17:55;27.40;;;25.25;;
22881;SDS011;11608;50.894;5.296;2023-09-08T10:20:24;27.15;;;24.83;;
22881;SDS011;11608;50.894;5.296;2023-09-08T10:22:56;26.58;;;24.25;;
22881;SDS011;11608;50.894;5.296;2023-09-08T10:25:24;27.52;;;25.15;;
22881;SDS011;11608;50.894;5.296;2023-09-08T10:27:50;28.10;;;25.65;;
22881;SDS011;11608;50.894;5.296;2023-09-08T10:30:17;27.85;;;25.35;;
22881;SDS011;11608;50.894;5.296;2023-09-08T10:32:45;26.88;;;24.67;;
22881;SDS011;11608;50.894;5.296;2023-09-08T10:35:14;27.27;;;24.98;;
22881;SDS011;11608;50.894;5.296;2023-09-08T10:37:42;26.83;;;24.42;;
22881;SDS011;11608;50.894;5.296;2023-09-08T10:40:24;26.13;;;24.13;;
22881;SDS011;11608;50.894;5.296;2023-09-08T10:43:11;28.27;;;25.73;;
22881;SDS011;11608;50.894;5.296;2023-09-08T10:45:37;27.20;;;24.83;;
22881;SDS011;11608;50.894;5.296;2023-09-08T10:48:06;27.65;;;25.13;;
22881;SDS011;11608;50.894;5.296;2023-09-08T10:50:33;28.35;;;26.10;;
22881;SDS011;11608;50.894;5.296;2023-09-08T10:53:33;27.25;;;24.88;;
22881;SDS011;11608;50.894;5.296;2023-09-08T10:55:52;26.08;;;23.92;;
22881;SDS011;11608;50.894;5.296;2023-09-08T10:58:19;26.33;;;24.20;;
22881;SDS011;11608;50.894;5.296;2023-09-08T11:00:47;27.08;;;24.98;;
22881;SDS011;11608;50.894;5.296;2023-09-08T11:03:13;27.27;;;25.20;;
22881;SDS011;11608;50.894;5.296;2023-09-08T11:05:41;27.08;;;24.98;;
22881;SDS011;11608;50.894;5.296;2023-09-08T11:08:08;26.77;;;24.73;;
22881;SDS011;11608;50.894;5.296;2023-09-08T11:10:35;27.10;;;24.95;;
22881;SDS011;11608;50.894;5.296;2023-09-08T11:13:03;27.25;;;24.70;;
22881;SDS011;11608;50.894;5.296;2023-09-08T11:15:30;26.85;;;24.75;;
22881;SDS011;11608;50.894;5.296;2023-09-08T11:17:56;25.38;;;23.27;;
22881;SDS011;11608;50.894;5.296;2023-09-08T11:20:26;25.65;;;23.40;;
22881;SDS011;11608;50.894;5.296;2023-09-08T11:22:52;25.63;;;23.48;;
22881;SDS011;11608;50.894;5.296;2023-09-08T11:25:19;26.80;;;24.58;;
22881;SDS011;11608;50.894;5.296;2023-09-08T11:27:45;27.05;;;24.70;;
22881;SDS011;11608;50.894;5.296;2023-09-08T11:30:12;26.67;;;24.42;;
22881;SDS011;11608;50.894;5.296;2023-09-08T11:32:38;26.67;;;24.58;;
22881;SDS011;11608;50.894;5.296;2023-09-08T11:35:05;26.83;;;24.67;;
22881;SDS011;11608;50.894;5.296;2023-09-08T11:37:35;26.10;;;24.10;;
22881;SDS011;11608;50.894;5.296;2023-09-08T11:40:03;26.13;;;24.05;;
22881;SDS011;11608;50.894;5.296;2023-09-08T11:42:34;26.65;;;24.35;;
22881;SDS011;11608;50.894;5.296;2023-09-08T11:45:00;26.00;;;23.90;;
22881;SDS011;11608;50.894;5.296;2023-09-08T11:47:28;25.75;;;23.50;;
22881;SDS011;11608;50.894;5.296;2023-09-08T11:49:55;25.38;;;23.38;;
22881;SDS011;11608;50.894;5.296;2023-09-08T11:52:23;25.40;;;23.20;;
22881;SDS011;11608;50.894;5.296;2023-09-08T11:54:49;26.92;;;24.58;;
22881;SDS011;11608;50.894;5.296;2023-09-08T11:57:15;26.70;;;24.50;;
22881;SDS011;11608;50.894;5.296;2023-09-08T11:59:43;27.17;;;24.42;;
22881;SDS011;11608;50.894;5.296;2023-09-08T12:02:12;27.70;;;25.30;;
22881;SDS011;11608;50.894;5.296;2023-09-08T12:04:39;26.98;;;24.77;;
22881;SDS011;11608;50.894;5.296;2023-09-08T12:07:07;26.67;;;24.55;;
22881;SDS011;11608;50.894;5.296;2023-09-08T12:09:39;26.65;;;24.20;;
22881;SDS011;11608;50.894;5.296;2023-09-08T12:12:10;25.80;;;23.50;;
22881;SDS011;11608;50.894;5.296;2023-09-08T12:14:40;26.85;;;24.23;;
22881;SDS011;11608;50.894;5.296;2023-09-08T12:17:07;25.88;;;23.80;;
22881;SDS011;11608;50.894;5.296;2023-09-08T12:19:33;25.10;;;22.98;;
22881;SDS011;11608;50.894;5.296;2023-09-08T12:22:09;26.08;;;24.08;;
22881;SDS011;11608;50.894;5.296;2023-09-08T12:24:46;25.95;;;23.88;;
22881;SDS011;11608;50.894;5.296;2023-09-08T12:27:14;25.42;;;23.40;;
22881;SDS011;11608;50.894;5.296;2023-09-08T12:29:41;25.98;;;23.95;;
22881;SDS011;11608;50.894;5.296;2023-09-08T12:32:07;25.10;;;23.10;;
22881;SDS011;11608;50.894;5.296;2023-09-08T12:34:34;25.63;;;23.63;;
22881;SDS011;11608;50.894;5.296;2023-09-08T12:37:00;24.58;;;22.70;;
22881;SDS011;11608;50.894;5.296;2023-09-08T12:39:26;25.38;;;23.27;;
22881;SDS011;11608;50.894;5.296;2023-09-08T12:41:52;25.80;;;23.73;;
22881;SDS011;11608;50.894;5.296;2023-09-08T12:44:20;24.90;;;22.90;;
22881;SDS011;11608;50.894;5.296;2023-09-08T12:46:46;25.75;;;23.42;;
22881;SDS011;11608;50.894;5.296;2023-09-08T12:49:12;25.95;;;23.88;;
22881;SDS011;11608;50.894;5.296;2023-09-08T12:51:42;25.23;;;23.23;;
22881;SDS011;11608;50.894;5.296;2023-09-08T12:54:09;26.58;;;24.17;;
22881;SDS011;11608;50.894;5.296;2023-09-08T12:56:35;26.10;;;23.98;;
22881;SDS011;11608;50.894;5.296;2023-09-08T12:59:02;25.90;;;23.40;;
22881;SDS011;11608;50.894;5.296;2023-09-08T13:01:28;25.95;;;23.65;;
22881;SDS011;11608;50.894;5.296;2023-09-08T13:03:54;26.30;;;23.85;;
22881;SDS011;11608;50.894;5.296;2023-09-08T13:06:20;26.98;;;24.63;;
22881;SDS011;11608;50.894;5.296;2023-09-08T13:08:47;25.77;;;23.58;;
22881;SDS011;11608;50.894;5.296;2023-09-08T13:11:13;25.45;;;23.35;;
22881;SDS011;11608;50.894;5.296;2023-09-08T13:13:41;26.08;;;23.58;;
22881;SDS011;11608;50.894;5.296;2023-09-08T13:16:07;25.20;;;23.10;;
22881;SDS011;11608;50.894;5.296;2023-09-08T13:18:33;24.98;;;22.92;;
22881;SDS011;11608;50.894;5.296;2023-09-08T13:21:03;25.80;;;23.80;;
22881;SDS011;11608;50.894;5.296;2023-09-08T13:23:29;26.33;;;23.92;;
22881;SDS011;11608;50.894;5.296;2023-09-08T13:25:55;26.10;;;23.85;;
22881;SDS011;11608;50.894;5.296;2023-09-08T13:28:21;25.35;;;23.05;;
22881;SDS011;11608;50.894;5.296;2023-09-08T13:30:47;25.40;;;23.23;;
22881;SDS011;11608;50.894;5.296;2023-09-08T13:33:13;25.73;;;23.45;;
22881;SDS011;11608;50.894;5.296;2023-09-08T13:35:39;25.02;;;22.92;;
22881;SDS011;11608;50.894;5.296;2023-09-08T13:38:05;25.65;;;23.50;;
22881;SDS011;11608;50.894;5.296;2023-09-08T13:40:31;25.88;;;23.88;;
22881;SDS011;11608;50.894;5.296;2023-09-08T13:42:57;26.33;;;23.90;;
22881;SDS011;11608;50.894;5.296;2023-09-08T13:45:23;26.20;;;24.02;;
22881;SDS011;11608;50.894;5.296;2023-09-08T13:47:49;25.70;;;23.63;;
22881;SDS011;11608;50.894;5.296;2023-09-08T13:50:16;26.20;;;23.75;;
22881;SDS011;11608;50.894;5.296;2023-09-08T13:52:42;25.50;;;23.00;;
22881;SDS011;11608;50.894;5.296;2023-09-08T13:55:08;24.42;;;22.23;;
22881;SDS011;11608;50.894;5.296;2023-09-08T13:57:35;25.30;;;23.05;;
22881;SDS011;11608;50.894;5.296;2023-09-08T14:00:02;25.42;;;23.15;;
22881;SDS011;11608;50.894;5.296;2023-09-08T14:02:28;25.80;;;23.05;;
22881;SDS011;11608;50.894;5.296;2023-09-08T14:04:54;25.10;;;22.80;;
22881;SDS011;11608;50.894;5.296;2023-09-08T14:07:20;24.35;;;22.25;;
22881;SDS011;11608;50.894;5.296;2023-09-08T14:09:46;25.13;;;22.88;;
22881;SDS011;11608;50.894;5.296;2023-09-08T14:12:12;24.63;;;22.63;;
22881;SDS011;11608;50.894;5.296;2023-09-08T14:14:39;24.80;;;22.67;;
22881;SDS011;11608;50.894;5.296;2023-09-08T14:17:05;24.67;;;22.48;;
22881;SDS011;11608;50.894;5.296;2023-09-08T14:19:31;24.60;;;22.25;;
22881;SDS011;11608;50.894;5.296;2023-09-08T14:22:00;25.38;;;23.00;;
22881;SDS011;11608;50.894;5.296;2023-09-08T14:24:26;24.45;;;22.05;;